Flight Track Log - Related Links

Times and Time Zones

All times are in EDT time to prevent confusion due to time zone crossing. See the CSN3768 flight status page for this flight to view local times or setup timezone preferences in your user account.

Time Position Orientation Groundspeed Altitude Reporting Facility
EDT Latitude Longitude Course Direction KTS MPH feet Rate Location/Type
Sun 10:45:15 AM 25.4133 108.5187 126° Southeast  Level Estimated
Sun 10:46:15 AM 25.3388 108.6302 126° Southeast  Level Estimated
Sun 10:47:15 AM 25.2642 108.7416 127° Southeast  Level Estimated
Sun 10:48:15 AM 25.1896 108.8528 127° Southeast  Level Estimated
Sun 10:49:15 AM 25.1148 108.9639 127° Southeast  Level Estimated
Sun 10:50:15 AM 25.0400 109.0749 127° Southeast  Level Estimated
Sun 10:51:15 AM 24.9651 109.1857 127° Southeast  Level Estimated
Sun 10:52:15 AM 24.8901 109.2964 127° Southeast  Level Estimated
Sun 10:53:15 AM 24.8150 109.4070 127° Southeast  Level Estimated
Sun 10:54:15 AM 24.7399 109.5174 127° Southeast  Level Estimated
Sun 10:55:15 AM 24.6647 109.6277 127° Southeast  Level Estimated
Sun 10:56:15 AM 24.5893 109.7379 127° Southeast  Level Estimated
Sun 10:57:15 AM 24.5140 109.8479 127° Southeast  Level Estimated
Sun 10:58:15 AM 24.4385 109.9578 127° Southeast  Level Estimated
Sun 10:59:15 AM 24.3629 110.0676 127° Southeast  Level Estimated
Sun 11:00:15 AM 24.2873 110.1772 127° Southeast  Level Estimated
Sun 11:01:15 AM 24.2116 110.2867 127° Southeast  Level Estimated
Sun 11:02:15 AM 24.1358 110.3961 127° Southeast  Level Estimated
Sun 11:03:15 AM 24.0600 110.5053 127° Southeast  Level Estimated
Sun 11:04:15 AM 23.9840 110.6144 127° Southeast  Level Estimated
Sun 11:05:15 AM 23.9080 110.7234 127° Southeast  Level Estimated
Sun 11:06:15 AM 23.8319 110.8323 127° Southeast  Level Estimated
Sun 11:07:15 AM 23.7557 110.9410 127° Southeast  Level Estimated
Sun 11:08:15 AM 23.6795 111.0496 128° Southeast  Level Estimated
Sun 11:09:15 AM 23.6032 111.1581 128° Southeast  Level Estimated
Sun 11:10:15 AM 23.5268 111.2664 128° Southeast  Level Estimated
Sun 11:11:15 AM 23.4503 111.3747 128° Southeast  Level Estimated
Sun 11:12:15 AM 23.3738 111.4828 128° Southeast  Level Estimated
Sun 11:13:15 AM 23.2971 111.5908 128° Southeast  Level Estimated
Sun 11:14:15 AM 23.2205 111.6986 128° Southeast  Level Estimated
Sun 11:15:15 AM 23.1437 111.8063 128° Southeast  Level Estimated
Sun 11:16:15 AM 23.0669 111.9139 128° Southeast  Level Estimated
Sun 11:17:15 AM 22.9899 112.0214 128° Southeast  Level Estimated
Sun 11:18:15 AM 22.9130 112.1288 128° Southeast  Level Estimated
Sun 11:19:15 AM 22.8359 112.2360 128° Southeast  Level Estimated
Sun 11:20:15 AM 22.7588 112.3431 128° Southeast  Level Estimated
Sun 11:21:15 AM 22.6816 112.4501 128° Southeast  Level Estimated
Sun 11:22:15 AM 22.6043 112.5570 128° Southeast  Level Estimated
Sun 11:23:15 AM 22.5270 112.6638 128° Southeast  Level Estimated
Sun 11:24:15 AM 22.4496 112.7704 128° Southeast  Level Estimated
Sun 11:25:15 AM 22.3721 112.8769 128° Southeast  Level Estimated
Sun 11:26:15 AM 22.2945 112.9833 128° Southeast  Level Estimated
Sun 11:27:15 AM 22.2169 113.0896 128° Southeast  Level Estimated
Sun 11:28:15 AM 22.1392 113.1958 128° Southeast  Level Estimated
Sun 11:29:15 AM 22.0614 113.3018 128° Southeast  Level Estimated
Sun 11:30:15 AM 21.9836 113.4077 308° West  Level Estimated
Sun 11:31:15 AM 22.0614 113.3018 128° Southeast  Level Estimated
Sun 11:32:15 AM 21.9836 113.4077 308° West  Level Estimated
Sun 11:33:15 AM 22.0614 113.3018 128° Southeast  Level Estimated
Sun 11:34:15 AM 21.9836 113.4077 308° West  Level Estimated
Sun 11:35:15 AM 22.0614 113.3018 128° Southeast  Level Estimated
Sun 11:36:15 AM 21.9836 113.4077 308° West  Level Estimated
Sun 11:37:15 AM 22.0614 113.3018 128° Southeast  Level Estimated
Sun 11:38:15 AM 21.9836 113.4077 308° West  Level Estimated
Sun 11:39:15 AM 22.0614 113.3018 128° Southeast  Level Estimated
Sun 11:40:15 AM 21.9836 113.4077 308° West  Level Estimated
Sun 11:41:15 AM 22.0614 113.3018 128° Southeast  Level Estimated
Sun 11:42:15 AM 21.9836 113.4077 308° West  Level Estimated
Sun 11:43:15 AM 22.0614 113.3018 308° West  Level Estimated

Login

Don't have an account? Register now (free) for customized features, flight alerts, and more!